createdAt,value
2018-09-15T00:01:53.142Z,62.60
2018-09-15T00:04:20.465Z,62.70
2018-09-15T00:06:47.754Z,62.60
2018-09-15T00:09:15.082Z,63.30
2018-09-15T00:11:42.397Z,63.50
2018-09-15T00:14:09.730Z,63.80
2018-09-15T00:16:37.063Z,63.30
2018-09-15T00:19:04.357Z,63.80
2018-09-15T00:21:31.687Z,63.90
2018-09-15T00:23:59.005Z,64.30
2018-09-15T00:26:26.328Z,64.70
2018-09-15T00:28:53.623Z,64.60
2018-09-15T00:31:20.943Z,65.20
2018-09-15T00:33:48.306Z,64.00
2018-09-15T00:36:15.642Z,64.10
2018-09-15T00:38:42.970Z,64.40
2018-09-15T00:41:10.247Z,64.20
2018-09-15T00:43:37.660Z,65.30
2018-09-15T00:46:04.976Z,64.30
2018-09-15T00:48:32.311Z,64.50
2018-09-15T00:50:59.618Z,64.60
2018-09-15T00:53:26.934Z,64.90
2018-09-15T00:55:54.253Z,65.40
2018-09-15T00:58:21.550Z,65.80
2018-09-15T01:00:48.870Z,65.50
2018-09-15T01:03:16.194Z,65.70
2018-09-15T01:05:43.538Z,65.80
2018-09-15T01:08:10.870Z,66.00
2018-09-15T01:10:38.269Z,66.00
2018-09-15T01:13:05.587Z,66.30
2018-09-15T01:15:32.948Z,66.10
2018-09-15T01:18:00.240Z,67.10
2018-09-15T01:20:27.749Z,67.10
2018-09-15T01:22:55.065Z,67.10
2018-09-15T01:25:22.436Z,67.40
2018-09-15T01:27:49.750Z,68.30
2018-09-15T01:30:17.049Z,68.40
2018-09-15T01:32:44.419Z,68.80
2018-09-15T01:35:11.752Z,68.60
2018-09-15T01:37:39.002Z,68.40
2018-09-15T01:40:06.305Z,68.50
2018-09-15T01:42:33.707Z,68.20
2018-09-15T01:45:01.016Z,68.50
2018-09-15T01:47:28.347Z,68.20
2018-09-15T01:49:55.658Z,68.60
2018-09-15T01:52:23.006Z,68.50
2018-09-15T01:54:50.307Z,68.50
2018-09-15T01:57:17.639Z,68.60
2018-09-15T01:59:44.964Z,68.80
2018-09-15T02:02:12.257Z,69.00
2018-09-15T02:04:39.592Z,69.00
2018-09-15T02:07:06.928Z,68.20
2018-09-15T02:09:34.222Z,68.70
2018-09-15T02:12:01.536Z,68.70
2018-09-15T02:14:28.906Z,67.80
2018-09-15T02:16:56.233Z,67.60
2018-09-15T02:19:23.536Z,68.10
2018-09-15T02:21:50.843Z,67.80
2018-09-15T02:24:18.207Z,68.00
2018-09-15T02:26:45.572Z,68.10
2018-09-15T02:29:12.959Z,68.20
2018-09-15T02:31:40.275Z,68.10
2018-09-15T02:34:07.591Z,68.10
2018-09-15T02:36:34.898Z,68.50
2018-09-15T02:39:02.374Z,67.80
2018-09-15T02:41:29.654Z,67.90
2018-09-15T02:43:56.972Z,68.00
2018-09-15T02:46:24.264Z,67.70
2018-09-15T02:48:51.612Z,67.70
2018-09-15T02:51:18.972Z,67.50
2018-09-15T02:53:46.315Z,68.10
2018-09-15T02:56:13.630Z,68.30
2018-09-15T02:58:40.940Z,67.60
2018-09-15T03:01:08.260Z,68.10
2018-09-15T03:03:35.583Z,67.60
2018-09-15T03:06:02.991Z,67.80
2018-09-15T03:08:30.278Z,68.10
2018-09-15T03:10:57.600Z,68.30
2018-09-15T03:13:24.987Z,68.30
2018-09-15T03:15:52.343Z,68.50
2018-09-15T03:18:19.654Z,68.80
2018-09-15T03:20:46.979Z,68.80
2018-09-15T03:23:14.287Z,69.00
2018-09-15T03:25:41.614Z,69.20
2018-09-15T03:28:08.994Z,69.40
2018-09-15T03:30:36.355Z,69.50
2018-09-15T03:33:03.717Z,69.50
2018-09-15T03:35:31.019Z,69.40
2018-09-15T03:37:58.427Z,69.50
2018-09-15T03:40:25.735Z,69.70
2018-09-15T03:42:53.045Z,70.10
2018-09-15T03:45:20.363Z,69.70
2018-09-15T03:47:47.723Z,69.70
2018-09-15T03:50:15.058Z,69.50
2018-09-15T03:52:42.355Z,69.50
2018-09-15T03:55:09.700Z,69.90
2018-09-15T03:57:37.136Z,70.20
2018-09-15T04:00:04.842Z,70.20
2018-09-15T04:02:32.135Z,70.40
2018-09-15T04:04:59.447Z,69.90
2018-09-15T04:07:26.818Z,70.70
2018-09-15T04:09:54.115Z,71.10
2018-09-15T04:12:21.459Z,71.40
2018-09-15T04:14:48.765Z,71.60
2018-09-15T04:17:16.180Z,71.90
2018-09-15T04:19:43.504Z,71.90
2018-09-15T04:22:10.884Z,72.20
2018-09-15T04:24:38.208Z,72.40
2018-09-15T04:27:05.555Z,72.60
2018-09-15T04:29:32.860Z,72.30
2018-09-15T04:32:00.270Z,72.70
2018-09-15T04:34:27.622Z,72.60
2018-09-15T04:36:54.995Z,72.70
2018-09-15T04:39:22.266Z,73.40
2018-09-15T04:41:49.674Z,73.60
2018-09-15T04:44:16.923Z,74.00
2018-09-15T04:46:44.264Z,73.40
2018-09-15T04:49:11.704Z,72.80
2018-09-15T04:51:39.013Z,72.70
2018-09-15T04:54:06.336Z,72.90
2018-09-15T04:56:33.631Z,72.90
2018-09-15T04:59:00.983Z,73.00
2018-09-15T05:01:28.300Z,72.90
2018-09-15T05:03:55.595Z,72.70
2018-09-15T05:06:22.989Z,73.00
2018-09-15T05:08:50.241Z,72.70
2018-09-15T05:11:17.579Z,72.60
2018-09-15T05:13:44.888Z,73.10
2018-09-15T05:16:12.223Z,73.10
2018-09-15T05:18:39.523Z,73.50
2018-09-15T05:21:06.873Z,73.30
2018-09-15T05:23:34.201Z,73.20
2018-09-15T05:26:01.529Z,72.70
2018-09-15T05:28:28.836Z,73.10
2018-09-15T05:30:56.150Z,72.90
2018-09-15T05:33:23.460Z,72.90
2018-09-15T05:35:51.264Z,72.90
2018-09-15T05:38:18.628Z,73.40
2018-09-15T05:40:45.955Z,73.00
2018-09-15T05:43:13.277Z,73.00
2018-09-15T05:45:40.715Z,73.50
2018-09-15T05:48:08.020Z,73.00
2018-09-15T05:50:35.373Z,73.10
2018-09-15T05:53:02.696Z,72.90
2018-09-15T05:55:30.063Z,72.70
2018-09-15T05:57:57.377Z,72.00
2018-09-15T06:00:24.717Z,72.50
2018-09-15T06:02:52.029Z,72.90
2018-09-15T06:05:19.368Z,72.60
2018-09-15T06:07:46.879Z,72.80
2018-09-15T06:10:14.162Z,72.50
2018-09-15T06:12:41.459Z,72.30
2018-09-15T06:15:08.824Z,72.20
2018-09-15T06:17:36.151Z,71.80
2018-09-15T06:20:03.623Z,71.80
2018-09-15T06:22:30.931Z,71.30
2018-09-15T06:24:58.310Z,71.60
2018-09-15T06:27:25.603Z,72.20
2018-09-15T06:29:52.935Z,72.50
2018-09-15T06:32:20.249Z,73.10
2018-09-15T06:34:47.717Z,73.50
2018-09-15T06:37:15.036Z,74.10
2018-09-15T06:39:42.375Z,74.50
2018-09-15T06:42:09.694Z,74.20
2018-09-15T06:44:37.024Z,73.80
2018-09-15T06:47:04.376Z,74.10
2018-09-15T06:49:31.744Z,74.00
2018-09-15T06:51:59.088Z,73.70
2018-09-15T06:54:26.522Z,73.60
2018-09-15T06:56:53.843Z,73.40
2018-09-15T06:59:21.168Z,73.40
2018-09-15T07:01:48.615Z,73.20
2018-09-15T07:04:15.910Z,72.80
2018-09-15T07:06:43.232Z,72.00
2018-09-15T07:09:10.580Z,71.40
2018-09-15T07:11:37.915Z,71.00
2018-09-15T07:14:05.290Z,70.40
2018-09-15T07:16:32.800Z,70.00
2018-09-15T07:19:00.131Z,69.40
2018-09-15T07:21:27.458Z,69.00
2018-09-15T07:23:54.765Z,68.70
2018-09-15T07:26:22.080Z,68.20
2018-09-15T07:28:49.467Z,67.20
2018-09-15T07:31:16.869Z,66.90
2018-09-15T07:33:44.120Z,67.60
2018-09-15T07:36:11.615Z,69.10
2018-09-15T07:38:38.951Z,68.70
2018-09-15T07:41:06.290Z,68.60
2018-09-15T07:43:33.609Z,68.60
2018-09-15T07:46:00.923Z,68.70
2018-09-15T07:48:28.257Z,68.80
2018-09-15T07:50:55.587Z,69.00
2018-09-15T07:53:22.899Z,68.40
2018-09-15T07:55:50.226Z,68.10
2018-09-15T07:58:17.588Z,68.00
2018-09-15T08:00:44.926Z,67.20
2018-09-15T08:03:12.277Z,67.60
2018-09-15T08:05:39.592Z,68.40
2018-09-15T08:08:06.924Z,68.70
2018-09-15T08:10:34.323Z,68.00
2018-09-15T08:13:01.647Z,67.70
2018-09-15T08:15:29.399Z,67.40
2018-09-15T08:17:56.799Z,67.20
2018-09-15T08:20:24.157Z,67.10
2018-09-15T08:22:51.493Z,66.30
2018-09-15T08:25:18.832Z,65.40
2018-09-15T08:27:46.427Z,65.40
2018-09-15T08:30:13.802Z,64.10
2018-09-15T08:32:41.256Z,63.80
2018-09-15T08:35:09.720Z,63.40
2018-09-15T08:37:37.104Z,63.90
2018-09-15T08:40:04.474Z,63.90
2018-09-15T08:42:31.927Z,64.00
2018-09-15T08:44:59.241Z,63.40
2018-09-15T08:47:26.543Z,63.40
2018-09-15T08:49:53.933Z,63.50
2018-09-15T08:52:21.295Z,63.40
2018-09-15T08:54:48.690Z,60.50
2018-09-15T08:57:16.051Z,59.20
2018-09-15T08:59:43.572Z,59.10
2018-09-15T09:02:10.930Z,58.10
2018-09-15T09:04:38.983Z,58.20
2018-09-15T09:07:06.316Z,57.70
2018-09-15T09:09:33.668Z,57.90
2018-09-15T09:12:00.996Z,57.70
2018-09-15T09:14:28.307Z,56.60
2018-09-15T09:16:55.726Z,56.80
2018-09-15T09:19:23.083Z,58.40
2018-09-15T09:21:50.436Z,58.80
2018-09-15T09:24:17.820Z,57.80
2018-09-15T09:26:45.175Z,56.80
2018-09-15T09:29:12.649Z,56.60
2018-09-15T09:31:40.213Z,55.50
2018-09-15T09:34:07.693Z,56.10
2018-09-15T09:36:35.041Z,55.20
2018-09-15T09:39:02.621Z,55.10
2018-09-15T09:41:30.152Z,55.80
2018-09-15T09:43:57.494Z,55.40
2018-09-15T09:46:24.912Z,54.50
2018-09-15T09:48:52.261Z,55.60
2018-09-15T09:51:19.598Z,56.70
2018-09-15T09:53:47.044Z,56.80
2018-09-15T09:56:14.409Z,56.20
2018-09-15T09:58:41.902Z,56.80
2018-09-15T10:01:09.367Z,55.80
2018-09-15T10:03:36.931Z,55.90
2018-09-15T10:06:04.460Z,53.50
2018-09-15T10:08:32.199Z,53.90
2018-09-15T10:11:00.385Z,54.50
2018-09-15T10:13:27.772Z,55.00
2018-09-15T10:15:55.125Z,55.60
2018-09-15T10:18:22.483Z,56.10
2018-09-15T10:20:49.838Z,54.80
2018-09-15T10:23:17.164Z,54.40
2018-09-15T10:25:44.464Z,54.60
2018-09-15T10:28:11.816Z,54.40
2018-09-15T10:30:39.352Z,53.60
2018-09-15T10:33:06.688Z,54.90
2018-09-15T10:35:34.046Z,54.10
2018-09-15T10:38:01.399Z,52.90
2018-09-15T10:40:28.898Z,52.50
2018-09-15T10:42:56.193Z,51.40
2018-09-15T10:45:24.422Z,51.60
2018-09-15T10:47:51.808Z,52.60
2018-09-15T10:50:19.154Z,52.90
2018-09-15T10:52:46.500Z,53.20
2018-09-15T10:55:13.859Z,54.00
2018-09-15T10:57:41.273Z,53.10
2018-09-15T11:00:08.688Z,52.90
2018-09-15T11:02:36.192Z,53.30
2018-09-15T11:05:04.384Z,53.50
2018-09-15T11:07:31.748Z,54.00
2018-09-15T11:09:59.144Z,54.40
2018-09-15T11:12:26.468Z,54.60
2018-09-15T11:14:53.802Z,54.20
2018-09-15T11:17:21.140Z,53.90
2018-09-15T11:19:48.520Z,53.80
2018-09-15T11:22:15.881Z,53.70
2018-09-15T11:24:43.343Z,53.50
2018-09-15T11:27:10.711Z,53.60
2018-09-15T11:29:38.056Z,54.00
2018-09-15T11:32:05.364Z,54.40
2018-09-15T11:34:32.857Z,55.00
2018-09-15T11:37:00.284Z,54.50
2018-09-15T11:39:27.771Z,54.60
2018-09-15T11:41:55.171Z,54.60
2018-09-15T11:44:22.616Z,54.30
2018-09-15T11:46:50.071Z,54.30
2018-09-15T11:49:17.502Z,54.10
2018-09-15T11:51:44.848Z,54.00
2018-09-15T11:54:12.172Z,54.00
2018-09-15T11:56:39.588Z,54.10
2018-09-15T11:59:06.947Z,54.00
2018-09-15T12:01:34.276Z,54.60
2018-09-15T12:04:01.646Z,53.90
2018-09-15T12:06:29.095Z,54.30
2018-09-15T12:08:56.473Z,54.30
2018-09-15T12:11:30.633Z,54.20
2018-09-15T12:13:57.971Z,53.80
2018-09-15T12:16:25.378Z,53.50
2018-09-15T12:18:52.781Z,53.20
2018-09-15T12:21:20.103Z,53.40
2018-09-15T12:23:47.400Z,53.70
2018-09-15T12:26:14.760Z,54.20
2018-09-15T12:28:42.111Z,54.90
2018-09-15T12:31:09.489Z,54.90
2018-09-15T12:33:37.938Z,54.30
2018-09-15T12:36:05.321Z,54.70
2018-09-15T12:38:32.651Z,54.60
2018-09-15T12:40:59.944Z,53.90
2018-09-15T12:43:27.404Z,52.70
2018-09-15T12:45:57.722Z,52.30
2018-09-15T12:48:25.057Z,53.00
2018-09-15T12:50:52.488Z,54.80
2018-09-15T12:53:19.852Z,55.00
2018-09-15T12:55:47.276Z,53.80
2018-09-15T12:58:16.472Z,53.70
2018-09-15T13:00:43.923Z,53.30
2018-09-15T13:03:11.255Z,53.00
2018-09-15T13:05:38.660Z,52.80
2018-09-15T13:08:06.004Z,51.60
2018-09-15T13:10:33.831Z,51.50
2018-09-15T13:13:01.277Z,50.50
2018-09-15T13:15:28.634Z,50.60
2018-09-15T13:17:56.461Z,50.70
2018-09-15T13:20:23.819Z,51.70
2018-09-15T13:22:51.143Z,52.10
2018-09-15T13:25:18.454Z,52.90
2018-09-15T13:27:45.758Z,52.40
2018-09-15T13:30:13.242Z,52.40
2018-09-15T13:32:40.471Z,52.50
2018-09-15T13:35:07.890Z,52.40
2018-09-15T13:37:35.219Z,52.30
2018-09-15T13:40:02.515Z,53.00
2018-09-15T13:42:29.928Z,53.00
2018-09-15T13:44:57.327Z,53.00
2018-09-15T13:47:24.631Z,52.50
2018-09-15T13:49:52.090Z,52.70
2018-09-15T13:52:19.399Z,53.00
2018-09-15T13:54:46.801Z,53.60
2018-09-15T13:57:14.259Z,53.50
2018-09-15T13:59:41.633Z,53.70
2018-09-15T14:02:09.046Z,53.60
2018-09-15T14:04:36.506Z,53.50
2018-09-15T14:07:04.085Z,54.40
2018-09-15T14:09:31.514Z,53.20
2018-09-15T14:11:58.818Z,53.40
2018-09-15T14:14:26.144Z,53.00
2018-09-15T14:16:53.464Z,52.00
2018-09-15T14:19:20.914Z,52.20
2018-09-15T14:21:48.271Z,52.50
2018-09-15T14:24:15.595Z,52.30
2018-09-15T14:26:42.967Z,53.20
2018-09-15T14:29:11.613Z,53.60
2018-09-15T14:31:38.973Z,52.90
2018-09-15T14:34:07.896Z,53.40
2018-09-15T14:36:35.440Z,53.80
2018-09-15T14:39:03.242Z,54.60
2018-09-15T14:41:30.616Z,54.50
2018-09-15T14:43:57.989Z,52.90
2018-09-15T14:46:25.395Z,53.10
2018-09-15T14:48:52.792Z,53.00
2018-09-15T14:51:20.442Z,53.30
2018-09-15T14:53:47.764Z,53.40
2018-09-15T14:56:15.097Z,53.40
2018-09-15T14:58:46.653Z,53.10
2018-09-15T15:01:14.229Z,53.50
2018-09-15T15:03:41.644Z,53.10
2018-09-15T15:06:09.025Z,53.60
2018-09-15T15:08:36.381Z,54.00
2018-09-15T15:11:03.836Z,53.50
2018-09-15T15:13:31.426Z,53.50
2018-09-15T15:15:58.795Z,53.60
2018-09-15T15:18:26.167Z,53.50
2018-09-15T15:20:53.631Z,53.30
2018-09-15T15:23:21.161Z,53.40
2018-09-15T15:25:49.537Z,54.20
2018-09-15T15:28:16.944Z,53.90
2018-09-15T15:30:44.296Z,53.70
2018-09-15T15:33:11.595Z,52.80
2018-09-15T15:35:39.112Z,53.30
2018-09-15T15:38:06.582Z,53.80
2018-09-15T15:40:34.086Z,52.70
2018-09-15T15:43:01.440Z,52.60
2018-09-15T15:45:28.804Z,52.40
2018-09-15T15:47:56.132Z,52.80
2018-09-15T15:50:23.562Z,53.60
2018-09-15T15:52:50.925Z,55.20
2018-09-15T15:55:18.239Z,55.50
2018-09-15T15:57:45.530Z,55.50
2018-09-15T16:00:12.928Z,55.30
2018-09-15T16:02:40.396Z,55.50
2018-09-15T16:05:07.826Z,55.90
2018-09-15T16:07:35.191Z,55.70
2018-09-15T16:10:02.511Z,55.20
2018-09-15T16:12:29.918Z,55.10
2018-09-15T16:14:57.256Z,55.20
2018-09-15T16:17:24.549Z,55.30
2018-09-15T16:19:51.919Z,55.20
2018-09-15T16:22:19.276Z,55.10
2018-09-15T16:24:46.577Z,54.90
2018-09-15T16:27:14.021Z,54.40
2018-09-15T16:29:41.333Z,55.00
2018-09-15T16:32:08.723Z,53.80
2018-09-15T16:34:36.056Z,54.50
2018-09-15T16:37:03.460Z,54.80
2018-09-15T16:39:30.758Z,54.50
2018-09-15T16:41:58.125Z,54.90
2018-09-15T16:44:25.507Z,55.20
2018-09-15T16:46:52.913Z,55.60
2018-09-15T16:49:20.445Z,56.00
2018-09-15T16:51:47.733Z,56.60
2018-09-15T16:54:15.055Z,57.00
2018-09-15T16:56:42.483Z,57.30
2018-09-15T16:59:11.152Z,57.70
2018-09-15T17:01:38.672Z,57.50
2018-09-15T17:04:06.027Z,57.30
2018-09-15T17:06:33.369Z,57.00
2018-09-15T17:09:00.793Z,56.80
2018-09-15T17:11:28.126Z,57.10
2018-09-15T17:13:55.417Z,56.70
2018-09-15T17:16:22.786Z,56.80
2018-09-15T17:18:50.082Z,56.90
2018-09-15T17:21:17.448Z,56.90
2018-09-15T17:23:44.777Z,57.30
2018-09-15T17:26:12.090Z,57.30
2018-09-15T17:28:39.407Z,57.00
2018-09-15T17:31:06.816Z,57.30
2018-09-15T17:33:34.102Z,57.40
2018-09-15T17:36:01.441Z,57.30
2018-09-15T17:38:28.768Z,58.00
2018-09-15T17:40:56.369Z,58.30
2018-09-15T17:43:23.672Z,58.30
2018-09-15T17:45:51.077Z,58.40
2018-09-15T17:48:18.401Z,58.40
2018-09-15T17:50:45.800Z,58.60
2018-09-15T17:53:13.091Z,58.90
2018-09-15T17:55:40.396Z,59.00
2018-09-15T17:58:07.784Z,59.10
2018-09-15T18:00:35.116Z,59.30
2018-09-15T18:03:02.431Z,59.20
2018-09-15T18:05:29.790Z,59.30
2018-09-15T18:07:57.100Z,59.60
2018-09-15T18:10:24.424Z,59.50
2018-09-15T18:12:51.751Z,59.80
2018-09-15T18:15:19.126Z,59.90
2018-09-15T18:17:46.501Z,60.30
2018-09-15T18:20:13.844Z,60.50
2018-09-15T18:22:41.152Z,60.90
2018-09-15T18:25:08.463Z,60.70
2018-09-15T18:27:35.803Z,60.90
2018-09-15T18:30:03.369Z,60.90
2018-09-15T18:32:30.730Z,60.90
2018-09-15T18:34:58.054Z,61.20
2018-09-15T18:37:25.456Z,61.50
2018-09-15T18:39:52.869Z,61.90
2018-09-15T18:42:20.184Z,61.40
2018-09-15T18:44:47.559Z,61.50
2018-09-15T18:47:14.983Z,61.40
2018-09-15T18:49:42.376Z,61.90
2018-09-15T18:52:09.779Z,62.20
2018-09-15T18:54:37.108Z,62.40
2018-09-15T18:57:04.439Z,62.00
2018-09-15T18:59:31.758Z,62.40
2018-09-15T19:01:59.088Z,62.70
2018-09-15T19:04:26.692Z,62.90
2018-09-15T19:06:54.090Z,62.80
2018-09-15T19:09:21.511Z,63.30
2018-09-15T19:11:48.866Z,63.30
2018-09-15T19:14:16.208Z,63.90
2018-09-15T19:16:43.536Z,63.10
2018-09-15T19:19:10.830Z,63.30
2018-09-15T19:21:39.002Z,64.10
2018-09-15T19:24:08.045Z,64.50
2018-09-15T19:26:35.404Z,64.70
2018-09-15T19:29:02.692Z,64.60
2018-09-15T19:31:30.208Z,64.60
2018-09-15T19:33:57.601Z,65.30
2018-09-15T19:36:25.600Z,64.40
2018-09-15T19:38:53.004Z,65.30
2018-09-15T19:41:20.387Z,64.60
2018-09-15T19:43:47.819Z,65.10
2018-09-15T19:46:15.129Z,65.00
2018-09-15T19:48:43.695Z,65.10
2018-09-15T19:51:11.019Z,65.60
2018-09-15T19:53:38.324Z,65.90
2018-09-15T19:56:05.770Z,65.90
2018-09-15T19:58:33.063Z,66.20
2018-09-15T20:01:00.406Z,66.70
2018-09-15T20:03:27.723Z,66.80
2018-09-15T20:05:55.056Z,67.20
2018-09-15T20:08:22.363Z,67.10
2018-09-15T20:10:49.734Z,67.40
2018-09-15T20:13:17.023Z,67.60
2018-09-15T20:15:43.370Z,68.00
2018-09-15T20:18:09.787Z,68.20
2018-09-15T20:20:36.132Z,68.10
2018-09-15T20:23:03.452Z,68.40
2018-09-15T20:25:30.790Z,68.20
2018-09-15T20:27:58.096Z,68.40
2018-09-15T20:30:25.407Z,68.80
2018-09-15T20:32:52.822Z,68.80
2018-09-15T20:35:20.039Z,69.20
2018-09-15T20:37:48.063Z,69.30
2018-09-15T20:40:15.421Z,69.30
2018-09-15T20:42:42.702Z,68.90
2018-09-15T20:45:10.000Z,68.80
2018-09-15T20:47:37.368Z,69.20
2018-09-15T20:50:04.884Z,68.90
2018-09-15T20:52:32.182Z,69.30
2018-09-15T20:54:59.511Z,69.50
2018-09-15T20:57:26.890Z,69.60
2018-09-15T20:59:54.179Z,69.40
2018-09-15T21:02:21.477Z,69.50
2018-09-15T21:04:48.798Z,69.90
2018-09-15T21:07:17.299Z,69.90
2018-09-15T21:09:44.592Z,69.70
2018-09-15T21:12:11.947Z,70.00
2018-09-15T21:14:39.311Z,70.30
2018-09-15T21:17:06.631Z,70.10
2018-09-15T21:19:33.932Z,69.90
2018-09-15T21:22:01.272Z,70.00
2018-09-15T21:24:28.704Z,69.90
2018-09-15T21:26:56.091Z,70.00
2018-09-15T21:29:23.461Z,70.00
2018-09-15T21:31:50.812Z,70.20
2018-09-15T21:34:18.151Z,69.70
2018-09-15T21:36:45.483Z,69.70
2018-09-15T21:39:12.815Z,69.80
2018-09-15T21:41:40.198Z,69.90
2018-09-15T21:44:07.559Z,70.10
2018-09-15T21:46:34.863Z,70.10
2018-09-15T21:49:02.202Z,69.80
2018-09-15T21:51:29.521Z,69.70
2018-09-15T21:53:56.816Z,69.90
2018-09-15T21:56:24.148Z,70.20
2018-09-15T21:58:51.435Z,69.90
2018-09-15T22:01:18.751Z,69.90
2018-09-15T22:03:46.132Z,70.40
2018-09-15T22:06:13.440Z,70.50
2018-09-15T22:08:40.765Z,70.90
2018-09-15T22:11:08.080Z,70.60
2018-09-15T22:13:35.397Z,70.30
2018-09-15T22:16:02.801Z,70.30
2018-09-15T22:18:30.035Z,71.10
2018-09-15T22:20:57.332Z,71.10
2018-09-15T22:23:24.669Z,70.60
2018-09-15T22:25:51.966Z,71.80
2018-09-15T22:28:19.360Z,70.90
2018-09-15T22:30:46.694Z,71.10
2018-09-15T22:33:14.526Z,71.30
2018-09-15T22:35:41.868Z,71.20
2018-09-15T22:38:09.235Z,71.10
2018-09-15T22:40:36.528Z,72.50
2018-09-15T22:43:03.923Z,72.30
2018-09-15T22:45:31.293Z,72.20
2018-09-15T22:47:58.587Z,71.80
2018-09-15T22:50:26.027Z,71.60
2018-09-15T22:52:53.320Z,72.00
2018-09-15T22:55:20.679Z,72.50
2018-09-15T22:57:47.986Z,72.70
2018-09-15T23:00:15.331Z,72.90
2018-09-15T23:02:42.619Z,73.20
2018-09-15T23:05:10.014Z,73.50
2018-09-15T23:07:37.341Z,73.20
2018-09-15T23:10:04.707Z,73.40
2018-09-15T23:12:32.013Z,73.20
2018-09-15T23:14:59.331Z,72.80
2018-09-15T23:17:26.626Z,72.20
2018-09-15T23:19:53.924Z,72.50
2018-09-15T23:22:21.345Z,73.40
2018-09-15T23:24:48.659Z,73.50
2018-09-15T23:27:15.988Z,73.30
2018-09-15T23:29:43.279Z,73.00
2018-09-15T23:32:10.592Z,72.40
2018-09-15T23:34:37.891Z,72.80
2018-09-15T23:37:06.432Z,72.90
2018-09-15T23:39:33.770Z,73.10
2018-09-15T23:42:01.085Z,73.80
2018-09-15T23:44:28.391Z,73.90
2018-09-15T23:46:55.730Z,73.50
2018-09-15T23:49:23.019Z,73.80
2018-09-15T23:51:50.355Z,73.90
2018-09-15T23:54:17.635Z,73.70
2018-09-15T23:56:45.003Z,74.00
2018-09-15T23:59:12.297Z,73.60
